Terminal Aerodrome Forecast
Issued by NWS

Home | Current Version | Previous Version | Text Only | Print | Product List | Glossary On
Versions: 1 2 3 4 5 6 7 8 9 10 11 12 13 14 15 16 17 18 19 20 21 22 23 24 25 26 27 28 29 30 31 32 33
000
FTUS42 KRAH 090541
TAFRWI
TAF
KRWI 090541Z 0906/1006 VRB03KT 2SM BR SCT001
      TEMPO 0906/0909 1/4SM FG OVC001
     FM091000 27006KT P6SM SCT050 BKN150
     FM091600 27011G18KT P6SM SCT050 BKN250=

USA.gov is the U.S. government's official web portal to all federal, state and local government web resources and services.